Погода Тодос-Сантосна неделю

Южная Нижняя Калифорния, Мексика

16 - 22 июля
  • 16июля
    Сегодня
    +22°
    +33°
    Ясно и безоблачно
    ВремяПогодаТемператураВлажностьДавлениеВетер, м/сВероятность осадков
    02:00Ясно и безоблачно+24°C81 %754 мм2.0 м/с2 %
    05:00Ясно и безоблачно+23°C80 %753 мм2.0 м/с2 %
    08:00Ясно и безоблачно+27°C67 %754 мм2.6 м/с2 %
    11:00Ясно и безоблачно+32°C56 %754 мм4.2 м/с2 %
    14:00Ясно и безоблачно+32°C54 %753 мм5.2 м/с4 %
    17:00Ясно и безоблачно+31°C61 %752 мм3.2 м/с2 %
    20:00Ясно и безоблачно+26°C68 %753 мм2.2 м/с2 %
    23:00Ясно и безоблачно+23°C73 %754 мм2.2 м/с2 %
  • 17июля
    Среда
    +20°
    +30°
    Ясно и безоблачно
    ВремяПогодаТемператураВлажностьДавлениеВетер, м/сВероятность осадков
    02:00Ясно и безоблачно+23°C78 %753 мм1.9 м/с2 %
    05:00Ясно и безоблачно+22°C77 %753 мм2.5 м/с2 %
    08:00Ясно и безоблачно+26°C59 %754 мм3.3 м/с2 %
    11:00Ясно и безоблачно+30°C60 %753 мм5.0 м/с2 %
    14:00Ясно и безоблачно+30°C63 %753 мм4.1 м/с2 %
    17:00Ясно и безоблачно+30°C66 %752 мм2.8 м/с2 %
    20:00Ясно и безоблачно+24°C71 %753 мм2.2 м/с2 %
    23:00Ясно и безоблачно+22°C79 %754 мм2.3 м/с2 %
  • 18июля
    Четверг
    +20°
    +30°
    Ясно и безоблачно
    ВремяПогодаТемператураВлажностьДавлениеВетер, м/сВероятность осадков
    02:00Ясно и безоблачно+22°C81 %753 мм2.1 м/с2 %
    05:00Ясно и безоблачно+21°C83 %753 мм2.6 м/с2 %
    08:00Ясно и безоблачно+24°C68 %754 мм3.3 м/с2 %
    11:00Ясно и безоблачно+29°C64 %754 мм4.2 м/с2 %
    14:00Ясно и безоблачно+29°C65 %752 мм3.7 м/с3 %
    17:00Ясно и безоблачно+29°C66 %752 мм3.4 м/с3 %
    20:00Ясно и безоблачно+23°C77 %753 мм2.2 м/с2 %
    23:00Ясно и безоблачно+22°C81 %754 мм2.7 м/с2 %
  • 19июля
    Пятница
    +20°
    +30°
    Ясно и безоблачно
    ВремяПогодаТемператураВлажностьДавлениеВетер, м/сВероятность осадков
    02:00Ясно и безоблачно+21°C84 %753 мм2.5 м/с2 %
    05:00Ясно и безоблачно+20°C84 %753 мм2.2 м/с2 %
    08:00Ясно и безоблачно+24°C65 %753 мм3.0 м/с2 %
    11:00Ясно и безоблачно+29°C58 %753 мм3.6 м/с2 %
    14:00Ясно и безоблачно+29°C61 %752 мм3.4 м/с3 %
    17:00Ясно и безоблачно+30°C59 %751 мм2.7 м/с3 %
    20:00Ясно и безоблачно+24°C76 %753 мм2.1 м/с2 %
    23:00Практически безоблачно+22°C81 %753 мм2.2 м/с2 %
Мы используем cookies
Соглашаюсь